sensor_id;sensor_type;location;lat;lon;timestamp;P1;durP1;ratioP1;P2;durP2;ratioP2
8353;SDS011;4656;48.090;11.498;2023-11-19T00:00:36;4.55;;;2.50;;
8353;SDS011;4656;48.090;11.498;2023-11-19T00:02:38;6.90;;;2.78;;
8353;SDS011;4656;48.090;11.498;2023-11-19T00:04:40;5.13;;;2.90;;
8353;SDS011;4656;48.090;11.498;2023-11-19T00:06:43;5.25;;;2.90;;
8353;SDS011;4656;48.090;11.498;2023-11-19T00:08:45;6.60;;;2.90;;
8353;SDS011;4656;48.090;11.498;2023-11-19T00:10:49;5.82;;;2.90;;
8353;SDS011;4656;48.090;11.498;2023-11-19T00:12:51;5.65;;;3.08;;
8353;SDS011;4656;48.090;11.498;2023-11-19T00:14:53;3.95;;;3.17;;
8353;SDS011;4656;48.090;11.498;2023-11-19T00:16:55;4.60;;;3.03;;
8353;SDS011;4656;48.090;11.498;2023-11-19T00:18:57;5.78;;;3.28;;
8353;SDS011;4656;48.090;11.498;2023-11-19T00:20:59;4.68;;;3.05;;
8353;SDS011;4656;48.090;11.498;2023-11-19T00:23:02;3.88;;;2.83;;
8353;SDS011;4656;48.090;11.498;2023-11-19T00:25:04;7.47;;;3.30;;
8353;SDS011;4656;48.090;11.498;2023-11-19T00:27:07;9.50;;;3.10;;
8353;SDS011;4656;48.090;11.498;2023-11-19T00:29:09;6.15;;;3.17;;
8353;SDS011;4656;48.090;11.498;2023-11-19T00:31:13;4.55;;;2.95;;
8353;SDS011;4656;48.090;11.498;2023-11-19T00:33:15;7.22;;;3.15;;
8353;SDS011;4656;48.090;11.498;2023-11-19T00:35:17;8.95;;;3.28;;
8353;SDS011;4656;48.090;11.498;2023-11-19T00:37:20;4.50;;;2.72;;
8353;SDS011;4656;48.090;11.498;2023-11-19T00:39:22;5.53;;;2.87;;
8353;SDS011;4656;48.090;11.498;2023-11-19T00:41:24;4.78;;;2.50;;
8353;SDS011;4656;48.090;11.498;2023-11-19T00:43:28;6.25;;;3.00;;
8353;SDS011;4656;48.090;11.498;2023-11-19T00:45:30;6.93;;;2.90;;
8353;SDS011;4656;48.090;11.498;2023-11-19T00:47:32;3.90;;;2.70;;
8353;SDS011;4656;48.090;11.498;2023-11-19T00:49:35;8.82;;;3.42;;
8353;SDS011;4656;48.090;11.498;2023-11-19T00:51:37;6.70;;;3.20;;
8353;SDS011;4656;48.090;11.498;2023-11-19T00:53:39;5.20;;;2.65;;
8353;SDS011;4656;48.090;11.498;2023-11-19T00:55:41;7.63;;;2.90;;
8353;SDS011;4656;48.090;11.498;2023-11-19T00:57:43;6.75;;;2.70;;
8353;SDS011;4656;48.090;11.498;2023-11-19T00:59:47;4.07;;;2.67;;
8353;SDS011;4656;48.090;11.498;2023-11-19T01:01:49;8.20;;;2.80;;
8353;SDS011;4656;48.090;11.498;2023-11-19T01:03:51;5.22;;;2.78;;
8353;SDS011;4656;48.090;11.498;2023-11-19T01:05:54;6.43;;;2.85;;
8353;SDS011;4656;48.090;11.498;2023-11-19T01:07:56;8.05;;;2.72;;
8353;SDS011;4656;48.090;11.498;2023-11-19T01:09:57;18.60;;;2.90;;
8353;SDS011;4656;48.090;11.498;2023-11-19T01:11:59;10.47;;;2.47;;
8353;SDS011;4656;48.090;11.498;2023-11-19T01:14:01;6.20;;;2.42;;
8353;SDS011;4656;48.090;11.498;2023-11-19T01:16:05;6.20;;;2.60;;
8353;SDS011;4656;48.090;11.498;2023-11-19T01:18:07;5.43;;;2.30;;
8353;SDS011;4656;48.090;11.498;2023-11-19T01:20:10;5.57;;;2.28;;
8353;SDS011;4656;48.090;11.498;2023-11-19T01:22:22;3.88;;;1.92;;
8353;SDS011;4656;48.090;11.498;2023-11-19T01:24:24;9.57;;;2.28;;
8353;SDS011;4656;48.090;11.498;2023-11-19T01:26:28;6.45;;;2.25;;
8353;SDS011;4656;48.090;11.498;2023-11-19T01:28:30;13.00;;;2.60;;
8353;SDS011;4656;48.090;11.498;2023-11-19T01:30:33;5.90;;;2.00;;
8353;SDS011;4656;48.090;11.498;2023-11-19T01:32:36;4.05;;;2.20;;
8353;SDS011;4656;48.090;11.498;2023-11-19T01:34:38;10.80;;;2.42;;
8353;SDS011;4656;48.090;11.498;2023-11-19T01:36:40;18.10;;;2.97;;
8353;SDS011;4656;48.090;11.498;2023-11-19T01:38:42;4.32;;;2.15;;
8353;SDS011;4656;48.090;11.498;2023-11-19T01:40:45;4.85;;;2.40;;
8353;SDS011;4656;48.090;11.498;2023-11-19T01:42:47;4.63;;;2.28;;
8353;SDS011;4656;48.090;11.498;2023-11-19T01:44:57;9.13;;;2.72;;
8353;SDS011;4656;48.090;11.498;2023-11-19T01:46:59;5.65;;;2.20;;
8353;SDS011;4656;48.090;11.498;2023-11-19T01:49:04;3.35;;;2.30;;
8353;SDS011;4656;48.090;11.498;2023-11-19T01:51:06;7.77;;;2.23;;
8353;SDS011;4656;48.090;11.498;2023-11-19T01:53:10;6.68;;;2.30;;
8353;SDS011;4656;48.090;11.498;2023-11-19T01:55:11;5.57;;;2.50;;
8353;SDS011;4656;48.090;11.498;2023-11-19T01:57:14;4.90;;;1.85;;
8353;SDS011;4656;48.090;11.498;2023-11-19T01:59:16;4.93;;;2.30;;
8353;SDS011;4656;48.090;11.498;2023-11-19T02:01:20;4.43;;;2.20;;
8353;SDS011;4656;48.090;11.498;2023-11-19T02:03:21;3.63;;;2.22;;
8353;SDS011;4656;48.090;11.498;2023-11-19T02:05:27;4.05;;;2.20;;
8353;SDS011;4656;48.090;11.498;2023-11-19T02:07:32;5.68;;;2.30;;
8353;SDS011;4656;48.090;11.498;2023-11-19T02:09:33;4.95;;;2.30;;
8353;SDS011;4656;48.090;11.498;2023-11-19T02:11:35;5.07;;;1.92;;
8353;SDS011;4656;48.090;11.498;2023-11-19T02:13:37;2.10;;;1.80;;
8353;SDS011;4656;48.090;11.498;2023-11-19T02:15:41;1.83;;;1.48;;
8353;SDS011;4656;48.090;11.498;2023-11-19T02:17:43;4.10;;;1.73;;
8353;SDS011;4656;48.090;11.498;2023-11-19T02:19:46;2.03;;;1.60;;
8353;SDS011;4656;48.090;11.498;2023-11-19T02:21:49;3.45;;;1.65;;
8353;SDS011;4656;48.090;11.498;2023-11-19T02:23:51;7.63;;;1.77;;
8353;SDS011;4656;48.090;11.498;2023-11-19T02:25:57;6.37;;;1.57;;
8353;SDS011;4656;48.090;11.498;2023-11-19T02:28:02;2.33;;;1.55;;
8353;SDS011;4656;48.090;11.498;2023-11-19T02:30:05;4.30;;;1.60;;
8353;SDS011;4656;48.090;11.498;2023-11-19T02:32:08;2.50;;;1.30;;
8353;SDS011;4656;48.090;11.498;2023-11-19T02:34:13;1.45;;;1.35;;
8353;SDS011;4656;48.090;11.498;2023-11-19T02:36:14;1.20;;;1.10;;
8353;SDS011;4656;48.090;11.498;2023-11-19T02:38:16;1.65;;;1.30;;
8353;SDS011;4656;48.090;11.498;2023-11-19T02:40:18;1.77;;;1.27;;
8353;SDS011;4656;48.090;11.498;2023-11-19T02:42:20;4.40;;;1.48;;
8353;SDS011;4656;48.090;11.498;2023-11-19T02:44:23;1.40;;;1.30;;
8353;SDS011;4656;48.090;11.498;2023-11-19T02:46:28;1.17;;;1.13;;
8353;SDS011;4656;48.090;11.498;2023-11-19T02:48:31;2.67;;;1.35;;
8353;SDS011;4656;48.090;11.498;2023-11-19T02:50:35;1.00;;;1.00;;
8353;SDS011;4656;48.090;11.498;2023-11-19T02:52:38;1.27;;;1.20;;
8353;SDS011;4656;48.090;11.498;2023-11-19T02:54:39;3.03;;;1.20;;
8353;SDS011;4656;48.090;11.498;2023-11-19T02:56:42;1.65;;;1.27;;
8353;SDS011;4656;48.090;11.498;2023-11-19T02:58:47;1.27;;;1.00;;
8353;SDS011;4656;48.090;11.498;2023-11-19T03:00:51;1.00;;;0.90;;
8353;SDS011;4656;48.090;11.498;2023-11-19T03:02:57;1.03;;;1.00;;
8353;SDS011;4656;48.090;11.498;2023-11-19T03:04:59;1.23;;;1.10;;
8353;SDS011;4656;48.090;11.498;2023-11-19T03:07:01;1.13;;;1.02;;
8353;SDS011;4656;48.090;11.498;2023-11-19T03:09:03;1.50;;;1.00;;
8353;SDS011;4656;48.090;11.498;2023-11-19T03:11:10;1.70;;;1.00;;
8353;SDS011;4656;48.090;11.498;2023-11-19T03:13:12;0.80;;;0.80;;
8353;SDS011;4656;48.090;11.498;2023-11-19T03:15:14;0.90;;;0.90;;
8353;SDS011;4656;48.090;11.498;2023-11-19T03:17:18;1.75;;;1.00;;
8353;SDS011;4656;48.090;11.498;2023-11-19T03:19:20;1.30;;;1.20;;
8353;SDS011;4656;48.090;11.498;2023-11-19T03:21:26;2.30;;;1.00;;
8353;SDS011;4656;48.090;11.498;2023-11-19T03:23:28;3.33;;;1.05;;
8353;SDS011;4656;48.090;11.498;2023-11-19T03:25:31;1.60;;;0.95;;
8353;SDS011;4656;48.090;11.498;2023-11-19T03:27:34;10.00;;;1.35;;
8353;SDS011;4656;48.090;11.498;2023-11-19T03:29:36;1.70;;;1.10;;
8353;SDS011;4656;48.090;11.498;2023-11-19T03:31:41;1.50;;;1.08;;
8353;SDS011;4656;48.090;11.498;2023-11-19T03:33:45;1.00;;;0.90;;
8353;SDS011;4656;48.090;11.498;2023-11-19T03:35:47;7.60;;;1.38;;
8353;SDS011;4656;48.090;11.498;2023-11-19T03:37:51;3.95;;;1.30;;
8353;SDS011;4656;48.090;11.498;2023-11-19T03:39:53;1.90;;;1.00;;
8353;SDS011;4656;48.090;11.498;2023-11-19T03:41:59;6.30;;;1.20;;
8353;SDS011;4656;48.090;11.498;2023-11-19T03:44:01;3.55;;;1.20;;
8353;SDS011;4656;48.090;11.498;2023-11-19T03:46:04;5.72;;;1.67;;
8353;SDS011;4656;48.090;11.498;2023-11-19T03:48:05;0.98;;;0.98;;
8353;SDS011;4656;48.090;11.498;2023-11-19T03:50:09;1.48;;;1.20;;
8353;SDS011;4656;48.090;11.498;2023-11-19T03:52:11;10.10;;;1.60;;
8353;SDS011;4656;48.090;11.498;2023-11-19T03:54:13;4.55;;;1.20;;
8353;SDS011;4656;48.090;11.498;2023-11-19T03:56:15;3.40;;;1.35;;
8353;SDS011;4656;48.090;11.498;2023-11-19T03:58:17;3.92;;;1.20;;
8353;SDS011;4656;48.090;11.498;2023-11-19T04:00:19;1.17;;;1.08;;
8353;SDS011;4656;48.090;11.498;2023-11-19T04:02:22;3.03;;;1.10;;
8353;SDS011;4656;48.090;11.498;2023-11-19T04:04:27;1.17;;;1.08;;
8353;SDS011;4656;48.090;11.498;2023-11-19T04:06:31;2.20;;;1.00;;
8353;SDS011;4656;48.090;11.498;2023-11-19T04:08:34;3.08;;;1.15;;
8353;SDS011;4656;48.090;11.498;2023-11-19T04:10:36;1.80;;;1.08;;
8353;SDS011;4656;48.090;11.498;2023-11-19T04:12:38;6.68;;;1.20;;
8353;SDS011;4656;48.090;11.498;2023-11-19T04:14:40;3.25;;;1.10;;
8353;SDS011;4656;48.090;11.498;2023-11-19T04:16:43;1.20;;;1.10;;
8353;SDS011;4656;48.090;11.498;2023-11-19T04:18:45;1.70;;;0.70;;
8353;SDS011;4656;48.090;11.498;2023-11-19T04:20:47;0.98;;;0.80;;
8353;SDS011;4656;48.090;11.498;2023-11-19T04:22:51;1.10;;;0.90;;
8353;SDS011;4656;48.090;11.498;2023-11-19T04:24:53;2.60;;;0.80;;
8353;SDS011;4656;48.090;11.498;2023-11-19T04:26:54;2.25;;;0.90;;
8353;SDS011;4656;48.090;11.498;2023-11-19T04:28:57;0.80;;;0.80;;
8353;SDS011;4656;48.090;11.498;2023-11-19T04:30:58;1.33;;;0.85;;
8353;SDS011;4656;48.090;11.498;2023-11-19T04:33:00;0.70;;;0.70;;
8353;SDS011;4656;48.090;11.498;2023-11-19T04:35:03;1.08;;;0.70;;
8353;SDS011;4656;48.090;11.498;2023-11-19T04:37:05;0.98;;;0.60;;
8353;SDS011;4656;48.090;11.498;2023-11-19T04:39:08;2.47;;;0.80;;
8353;SDS011;4656;48.090;11.498;2023-11-19T04:41:12;0.88;;;0.80;;
8353;SDS011;4656;48.090;11.498;2023-11-19T04:43:14;2.03;;;0.90;;
8353;SDS011;4656;48.090;11.498;2023-11-19T04:45:17;1.73;;;0.90;;
8353;SDS011;4656;48.090;11.498;2023-11-19T04:47:20;3.53;;;1.05;;
8353;SDS011;4656;48.090;11.498;2023-11-19T04:49:22;2.28;;;1.08;;
8353;SDS011;4656;48.090;11.498;2023-11-19T04:51:26;1.90;;;0.80;;
8353;SDS011;4656;48.090;11.498;2023-11-19T04:53:29;0.82;;;0.80;;
8353;SDS011;4656;48.090;11.498;2023-11-19T04:55:31;1.02;;;0.80;;
8353;SDS011;4656;48.090;11.498;2023-11-19T04:57:33;2.28;;;0.80;;
8353;SDS011;4656;48.090;11.498;2023-11-19T04:59:36;1.00;;;0.80;;
8353;SDS011;4656;48.090;11.498;2023-11-19T05:01:38;1.33;;;0.90;;
8353;SDS011;4656;48.090;11.498;2023-11-19T05:03:40;0.82;;;0.82;;
8353;SDS011;4656;48.090;11.498;2023-11-19T05:05:41;1.25;;;0.80;;
8353;SDS011;4656;48.090;11.498;2023-11-19T05:07:43;1.00;;;0.90;;
8353;SDS011;4656;48.090;11.498;2023-11-19T05:09:45;2.40;;;1.10;;
8353;SDS011;4656;48.090;11.498;2023-11-19T05:11:49;1.10;;;1.00;;
8353;SDS011;4656;48.090;11.498;2023-11-19T05:13:51;1.10;;;1.00;;
8353;SDS011;4656;48.090;11.498;2023-11-19T05:15:53;2.40;;;1.20;;
8353;SDS011;4656;48.090;11.498;2023-11-19T05:17:55;6.63;;;1.17;;
8353;SDS011;4656;48.090;11.498;2023-11-19T05:19:57;2.33;;;1.00;;
8353;SDS011;4656;48.090;11.498;2023-11-19T05:21:59;0.80;;;0.80;;
8353;SDS011;4656;48.090;11.498;2023-11-19T05:24:01;1.65;;;1.20;;
8353;SDS011;4656;48.090;11.498;2023-11-19T05:26:05;0.95;;;0.95;;
8353;SDS011;4656;48.090;11.498;2023-11-19T05:28:10;1.30;;;1.00;;
8353;SDS011;4656;48.090;11.498;2023-11-19T05:30:14;4.20;;;1.00;;
8353;SDS011;4656;48.090;11.498;2023-11-19T05:32:16;2.70;;;1.00;;
8353;SDS011;4656;48.090;11.498;2023-11-19T05:34:19;1.05;;;1.00;;
8353;SDS011;4656;48.090;11.498;2023-11-19T05:36:21;1.23;;;1.00;;
8353;SDS011;4656;48.090;11.498;2023-11-19T05:38:23;2.55;;;1.08;;
8353;SDS011;4656;48.090;11.498;2023-11-19T05:40:25;1.10;;;1.10;;
8353;SDS011;4656;48.090;11.498;2023-11-19T05:42:28;1.55;;;1.10;;
8353;SDS011;4656;48.090;11.498;2023-11-19T05:44:31;1.10;;;0.98;;
8353;SDS011;4656;48.090;11.498;2023-11-19T05:46:33;1.10;;;0.88;;
8353;SDS011;4656;48.090;11.498;2023-11-19T05:48:40;1.00;;;0.90;;
8353;SDS011;4656;48.090;11.498;2023-11-19T05:50:42;1.70;;;0.90;;
8353;SDS011;4656;48.090;11.498;2023-11-19T05:52:46;1.30;;;1.20;;
8353;SDS011;4656;48.090;11.498;2023-11-19T05:54:48;1.10;;;1.00;;
8353;SDS011;4656;48.090;11.498;2023-11-19T05:56:52;1.30;;;0.95;;
8353;SDS011;4656;48.090;11.498;2023-11-19T05:58:54;1.05;;;0.95;;
8353;SDS011;4656;48.090;11.498;2023-11-19T06:00:58;2.30;;;1.02;;
8353;SDS011;4656;48.090;11.498;2023-11-19T06:03:01;0.90;;;0.90;;
8353;SDS011;4656;48.090;11.498;2023-11-19T06:05:03;2.10;;;0.80;;
8353;SDS011;4656;48.090;11.498;2023-11-19T06:07:05;0.90;;;0.90;;
8353;SDS011;4656;48.090;11.498;2023-11-19T06:09:06;1.00;;;0.80;;
8353;SDS011;4656;48.090;11.498;2023-11-19T06:11:09;0.90;;;0.70;;
8353;SDS011;4656;48.090;11.498;2023-11-19T06:13:14;1.00;;;0.90;;
8353;SDS011;4656;48.090;11.498;2023-11-19T06:15:17;0.80;;;0.80;;
8353;SDS011;4656;48.090;11.498;2023-11-19T06:17:20;0.90;;;0.90;;
8353;SDS011;4656;48.090;11.498;2023-11-19T06:19:22;0.77;;;0.77;;
8353;SDS011;4656;48.090;11.498;2023-11-19T06:21:24;0.70;;;0.70;;
8353;SDS011;4656;48.090;11.498;2023-11-19T06:23:26;0.90;;;0.90;;
8353;SDS011;4656;48.090;11.498;2023-11-19T06:25:29;1.00;;;0.90;;
8353;SDS011;4656;48.090;11.498;2023-11-19T06:27:30;0.80;;;0.80;;
8353;SDS011;4656;48.090;11.498;2023-11-19T06:29:32;0.88;;;0.88;;
8353;SDS011;4656;48.090;11.498;2023-11-19T06:31:36;0.60;;;0.60;;
8353;SDS011;4656;48.090;11.498;2023-11-19T06:33:40;0.70;;;0.70;;
8353;SDS011;4656;48.090;11.498;2023-11-19T06:35:42;0.80;;;0.80;;
8353;SDS011;4656;48.090;11.498;2023-11-19T06:37:44;1.00;;;1.00;;
8353;SDS011;4656;48.090;11.498;2023-11-19T06:39:45;0.70;;;0.70;;
8353;SDS011;4656;48.090;11.498;2023-11-19T06:41:47;0.60;;;0.60;;
8353;SDS011;4656;48.090;11.498;2023-11-19T06:43:49;1.02;;;0.80;;
8353;SDS011;4656;48.090;11.498;2023-11-19T06:45:52;0.60;;;0.60;;
8353;SDS011;4656;48.090;11.498;2023-11-19T06:47:54;1.00;;;0.70;;
8353;SDS011;4656;48.090;11.498;2023-11-19T06:49:57;0.57;;;0.57;;
8353;SDS011;4656;48.090;11.498;2023-11-19T06:51:58;0.52;;;0.52;;
8353;SDS011;4656;48.090;11.498;2023-11-19T06:54:01;0.65;;;0.65;;
8353;SDS011;4656;48.090;11.498;2023-11-19T06:56:03;0.60;;;0.60;;
8353;SDS011;4656;48.090;11.498;2023-11-19T06:58:06;1.45;;;1.30;;
8353;SDS011;4656;48.090;11.498;2023-11-19T07:00:09;1.00;;;0.88;;
8353;SDS011;4656;48.090;11.498;2023-11-19T07:02:11;0.90;;;0.90;;
8353;SDS011;4656;48.090;11.498;2023-11-19T07:04:14;1.73;;;1.63;;
8353;SDS011;4656;48.090;11.498;2023-11-19T07:06:17;0.90;;;0.80;;
8353;SDS011;4656;48.090;11.498;2023-11-19T07:08:20;1.58;;;1.48;;
8353;SDS011;4656;48.090;11.498;2023-11-19T07:10:22;2.00;;;1.20;;
8353;SDS011;4656;48.090;11.498;2023-11-19T07:12:24;0.50;;;0.50;;
8353;SDS011;4656;48.090;11.498;2023-11-19T07:14:27;1.98;;;1.58;;
8353;SDS011;4656;48.090;11.498;2023-11-19T07:16:29;1.40;;;1.20;;
8353;SDS011;4656;48.090;11.498;2023-11-19T07:18:31;2.33;;;1.95;;
8353;SDS011;4656;48.090;11.498;2023-11-19T07:20:35;3.70;;;2.50;;
8353;SDS011;4656;48.090;11.498;2023-11-19T07:22:39;3.40;;;2.70;;
8353;SDS011;4656;48.090;11.498;2023-11-19T07:24:41;1.30;;;1.20;;
8353;SDS011;4656;48.090;11.498;2023-11-19T07:26:45;1.73;;;1.63;;
8353;SDS011;4656;48.090;11.498;2023-11-19T07:28:47;1.52;;;1.42;;
8353;SDS011;4656;48.090;11.498;2023-11-19T07:30:49;2.20;;;1.20;;
8353;SDS011;4656;48.090;11.498;2023-11-19T07:32:51;0.90;;;0.90;;
8353;SDS011;4656;48.090;11.498;2023-11-19T07:34:53;1.20;;;1.10;;
8353;SDS011;4656;48.090;11.498;2023-11-19T07:36:56;1.23;;;1.13;;
8353;SDS011;4656;48.090;11.498;2023-11-19T07:39:03;0.80;;;0.80;;
8353;SDS011;4656;48.090;11.498;2023-11-19T07:41:06;2.85;;;2.45;;
8353;SDS011;4656;48.090;11.498;2023-11-19T07:43:09;2.55;;;2.00;;
8353;SDS011;4656;48.090;11.498;2023-11-19T07:45:12;1.45;;;1.35;;
8353;SDS011;4656;48.090;11.498;2023-11-19T07:47:14;5.35;;;3.58;;
8353;SDS011;4656;48.090;11.498;2023-11-19T07:49:16;0.80;;;0.80;;
8353;SDS011;4656;48.090;11.498;2023-11-19T07:51:18;2.00;;;1.50;;
8353;SDS011;4656;48.090;11.498;2023-11-19T07:53:20;2.58;;;2.17;;
8353;SDS011;4656;48.090;11.498;2023-11-19T07:55:24;1.13;;;1.10;;
8353;SDS011;4656;48.090;11.498;2023-11-19T07:57:27;0.95;;;0.95;;
8353;SDS011;4656;48.090;11.498;2023-11-19T07:59:30;4.15;;;3.55;;
8353;SDS011;4656;48.090;11.498;2023-11-19T08:01:33;1.40;;;1.30;;
8353;SDS011;4656;48.090;11.498;2023-11-19T08:03:35;1.27;;;1.05;;
8353;SDS011;4656;48.090;11.498;2023-11-19T08:05:36;0.80;;;0.80;;
8353;SDS011;4656;48.090;11.498;2023-11-19T08:07:38;0.60;;;0.60;;
8353;SDS011;4656;48.090;11.498;2023-11-19T08:09:40;0.80;;;0.80;;
8353;SDS011;4656;48.090;11.498;2023-11-19T08:11:44;0.88;;;0.88;;
8353;SDS011;4656;48.090;11.498;2023-11-19T08:13:46;0.63;;;0.63;;
8353;SDS011;4656;48.090;11.498;2023-11-19T08:15:48;0.70;;;0.70;;
8353;SDS011;4656;48.090;11.498;2023-11-19T08:17:50;0.70;;;0.70;;
8353;SDS011;4656;48.090;11.498;2023-11-19T08:19:52;0.70;;;0.70;;
8353;SDS011;4656;48.090;11.498;2023-11-19T08:21:54;1.77;;;0.95;;
8353;SDS011;4656;48.090;11.498;2023-11-19T08:23:56;0.85;;;0.85;;
8353;SDS011;4656;48.090;11.498;2023-11-19T08:25:58;0.60;;;0.60;;
8353;SDS011;4656;48.090;11.498;2023-11-19T08:28:01;0.70;;;0.60;;
8353;SDS011;4656;48.090;11.498;2023-11-19T08:30:04;0.60;;;0.60;;
8353;SDS011;4656;48.090;11.498;2023-11-19T08:32:07;1.33;;;0.57;;
8353;SDS011;4656;48.090;11.498;2023-11-19T08:34:09;0.70;;;0.60;;
8353;SDS011;4656;48.090;11.498;2023-11-19T08:36:15;0.77;;;0.63;;
8353;SDS011;4656;48.090;11.498;2023-11-19T08:38:17;0.65;;;0.60;;
8353;SDS011;4656;48.090;11.498;2023-11-19T08:40:18;0.63;;;0.60;;
8353;SDS011;4656;48.090;11.498;2023-11-19T08:42:20;0.55;;;0.55;;
8353;SDS011;4656;48.090;11.498;2023-11-19T08:44:24;0.73;;;0.73;;
8353;SDS011;4656;48.090;11.498;2023-11-19T08:46:26;0.68;;;0.55;;
8353;SDS011;4656;48.090;11.498;2023-11-19T08:48:28;0.60;;;0.60;;
8353;SDS011;4656;48.090;11.498;2023-11-19T08:50:30;0.70;;;0.70;;
8353;SDS011;4656;48.090;11.498;2023-11-19T08:52:33;0.90;;;0.90;;
8353;SDS011;4656;48.090;11.498;2023-11-19T08:54:35;1.10;;;1.00;;
8353;SDS011;4656;48.090;11.498;2023-11-19T08:56:37;0.68;;;0.68;;
8353;SDS011;4656;48.090;11.498;2023-11-19T08:58:39;0.70;;;0.70;;
8353;SDS011;4656;48.090;11.498;2023-11-19T09:00:42;0.90;;;0.85;;
8353;SDS011;4656;48.090;11.498;2023-11-19T09:02:44;1.52;;;0.93;;
8353;SDS011;4656;48.090;11.498;2023-11-19T09:04:45;0.82;;;0.82;;
8353;SDS011;4656;48.090;11.498;2023-11-19T09:06:48;0.95;;;0.90;;
8353;SDS011;4656;48.090;11.498;2023-11-19T09:08:50;1.00;;;0.75;;
8353;SDS011;4656;48.090;11.498;2023-11-19T09:10:52;0.82;;;0.82;;
8353;SDS011;4656;48.090;11.498;2023-11-19T09:12:54;0.80;;;0.80;;
8353;SDS011;4656;48.090;11.498;2023-11-19T09:14:56;1.13;;;1.05;;
8353;SDS011;4656;48.090;11.498;2023-11-19T09:17:00;1.20;;;1.10;;
8353;SDS011;4656;48.090;11.498;2023-11-19T09:19:02;1.48;;;1.10;;
8353;SDS011;4656;48.090;11.498;2023-11-19T09:21:05;0.90;;;0.90;;
8353;SDS011;4656;48.090;11.498;2023-11-19T09:23:07;3.27;;;2.13;;
8353;SDS011;4656;48.090;11.498;2023-11-19T09:25:09;4.13;;;2.33;;
8353;SDS011;4656;48.090;11.498;2023-11-19T09:27:10;1.38;;;1.27;;
8353;SDS011;4656;48.090;11.498;2023-11-19T09:29:12;1.77;;;1.20;;
8353;SDS011;4656;48.090;11.498;2023-11-19T09:31:15;3.58;;;1.75;;
8353;SDS011;4656;48.090;11.498;2023-11-19T09:33:19;1.30;;;0.90;;
8353;SDS011;4656;48.090;11.498;2023-11-19T09:35:21;1.05;;;0.90;;
8353;SDS011;4656;48.090;11.498;2023-11-19T09:37:23;1.13;;;1.10;;
8353;SDS011;4656;48.090;11.498;2023-11-19T09:39:25;0.90;;;0.90;;
8353;SDS011;4656;48.090;11.498;2023-11-19T09:41:27;0.90;;;0.90;;
8353;SDS011;4656;48.090;11.498;2023-11-19T09:43:30;1.27;;;1.10;;
8353;SDS011;4656;48.090;11.498;2023-11-19T09:45:35;1.48;;;1.10;;
8353;SDS011;4656;48.090;11.498;2023-11-19T09:47:43;0.90;;;0.90;;
8353;SDS011;4656;48.090;11.498;2023-11-19T09:49:46;0.82;;;0.82;;
8353;SDS011;4656;48.090;11.498;2023-11-19T09:51:50;1.07;;;1.07;;
8353;SDS011;4656;48.090;11.498;2023-11-19T09:53:52;1.27;;;1.17;;
8353;SDS011;4656;48.090;11.498;2023-11-19T09:55:54;1.98;;;1.30;;
8353;SDS011;4656;48.090;11.498;2023-11-19T09:57:57;2.63;;;1.55;;
8353;SDS011;4656;48.090;11.498;2023-11-19T10:00:01;1.45;;;1.35;;
8353;SDS011;4656;48.090;11.498;2023-11-19T10:02:04;2.10;;;1.35;;
8353;SDS011;4656;48.090;11.498;2023-11-19T10:04:07;2.15;;;1.58;;
8353;SDS011;4656;48.090;11.498;2023-11-19T10:06:11;0.90;;;0.90;;
8353;SDS011;4656;48.090;11.498;2023-11-19T10:08:13;0.98;;;0.98;;
8353;SDS011;4656;48.090;11.498;2023-11-19T10:10:16;1.00;;;1.00;;
8353;SDS011;4656;48.090;11.498;2023-11-19T10:12:19;1.10;;;1.10;;
8353;SDS011;4656;48.090;11.498;2023-11-19T10:14:22;0.70;;;0.70;;
8353;SDS011;4656;48.090;11.498;2023-11-19T10:16:28;10.35;;;2.90;;
8353;SDS011;4656;48.090;11.498;2023-11-19T10:18:31;1.60;;;0.57;;
8353;SDS011;4656;48.090;11.498;2023-11-19T10:20:37;0.70;;;0.70;;
8353;SDS011;4656;48.090;11.498;2023-11-19T10:22:44;1.30;;;1.20;;
8353;SDS011;4656;48.090;11.498;2023-11-19T10:24:46;0.70;;;0.70;;
8353;SDS011;4656;48.090;11.498;2023-11-19T10:26:49;1.02;;;1.00;;
8353;SDS011;4656;48.090;11.498;2023-11-19T10:28:50;0.63;;;0.63;;
8353;SDS011;4656;48.090;11.498;2023-11-19T10:30:52;0.85;;;0.70;;
8353;SDS011;4656;48.090;11.498;2023-11-19T10:33:04;1.50;;;1.20;;
8353;SDS011;4656;48.090;11.498;2023-11-19T10:35:06;1.95;;;1.40;;
8353;SDS011;4656;48.090;11.498;2023-11-19T10:37:08;0.60;;;0.60;;
8353;SDS011;4656;48.090;11.498;2023-11-19T10:39:12;1.17;;;0.90;;
8353;SDS011;4656;48.090;11.498;2023-11-19T10:41:14;0.80;;;0.70;;
8353;SDS011;4656;48.090;11.498;2023-11-19T10:43:28;0.63;;;0.63;;
8353;SDS011;4656;48.090;11.498;2023-11-19T10:45:32;0.70;;;0.70;;
8353;SDS011;4656;48.090;11.498;2023-11-19T10:47:34;0.63;;;0.63;;
8353;SDS011;4656;48.090;11.498;2023-11-19T10:49:37;0.60;;;0.60;;
8353;SDS011;4656;48.090;11.498;2023-11-19T10:51:41;0.73;;;0.73;;
8353;SDS011;4656;48.090;11.498;2023-11-19T10:53:46;0.98;;;0.98;;
8353;SDS011;4656;48.090;11.498;2023-11-19T10:55:50;0.95;;;0.80;;
8353;SDS011;4656;48.090;11.498;2023-11-19T10:57:52;0.70;;;0.70;;
8353;SDS011;4656;48.090;11.498;2023-11-19T10:59:55;1.45;;;0.63;;
8353;SDS011;4656;48.090;11.498;2023-11-19T11:02:03;2.70;;;1.10;;
8353;SDS011;4656;48.090;11.498;2023-11-19T11:04:10;0.52;;;0.52;;
8353;SDS011;4656;48.090;11.498;2023-11-19T11:06:14;2.03;;;0.60;;
8353;SDS011;4656;48.090;11.498;2023-11-19T11:08:17;0.90;;;0.55;;
8353;SDS011;4656;48.090;11.498;2023-11-19T11:10:19;0.70;;;0.50;;
8353;SDS011;4656;48.090;11.498;2023-11-19T11:12:23;0.57;;;0.57;;
8353;SDS011;4656;48.090;11.498;2023-11-19T11:14:26;0.80;;;0.80;;
8353;SDS011;4656;48.090;11.498;2023-11-19T11:16:29;1.00;;;1.00;;
8353;SDS011;4656;48.090;11.498;2023-11-19T11:18:31;1.02;;;0.93;;
8353;SDS011;4656;48.090;11.498;2023-11-19T11:20:33;0.50;;;0.50;;
8353;SDS011;4656;48.090;11.498;2023-11-19T11:22:38;1.15;;;1.05;;
8353;SDS011;4656;48.090;11.498;2023-11-19T11:25:06;0.57;;;0.57;;
8353;SDS011;4656;48.090;11.498;2023-11-19T11:27:28;0.35;;;0.35;;
8353;SDS011;4656;48.090;11.498;2023-11-19T11:29:39;0.50;;;0.50;;
8353;SDS011;4656;48.090;11.498;2023-11-19T11:31:44;1.00;;;0.50;;
8353;SDS011;4656;48.090;11.498;2023-11-19T11:33:58;0.70;;;0.60;;
8353;SDS011;4656;48.090;11.498;2023-11-19T11:36:06;0.60;;;0.60;;
8353;SDS011;4656;48.090;11.498;2023-11-19T11:38:12;0.52;;;0.52;;
8353;SDS011;4656;48.090;11.498;2023-11-19T11:40:15;1.00;;;0.82;;
8353;SDS011;4656;48.090;11.498;2023-11-19T11:42:31;0.77;;;0.77;;
8353;SDS011;4656;48.090;11.498;2023-11-19T11:46:54;0.35;;;0.35;;
8353;SDS011;4656;48.090;11.498;2023-11-19T11:48:56;0.50;;;0.50;;
8353;SDS011;4656;48.090;11.498;2023-11-19T11:50:58;0.45;;;0.45;;
8353;SDS011;4656;48.090;11.498;2023-11-19T11:53:16;0.40;;;0.40;;
8353;SDS011;4656;48.090;11.498;2023-11-19T11:55:17;0.30;;;0.30;;
8353;SDS011;4656;48.090;11.498;2023-11-19T11:57:19;0.43;;;0.43;;
8353;SDS011;4656;48.090;11.498;2023-11-19T11:59:24;0.47;;;0.47;;
8353;SDS011;4656;48.090;11.498;2023-11-19T12:01:26;1.20;;;0.60;;
8353;SDS011;4656;48.090;11.498;2023-11-19T12:03:30;0.50;;;0.50;;
8353;SDS011;4656;48.090;11.498;2023-11-19T12:05:32;0.60;;;0.52;;
8353;SDS011;4656;48.090;11.498;2023-11-19T12:07:34;0.90;;;0.50;;
8353;SDS011;4656;48.090;11.498;2023-11-19T12:09:39;0.52;;;0.52;;
8353;SDS011;4656;48.090;11.498;2023-11-19T12:11:46;0.95;;;0.80;;
8353;SDS011;4656;48.090;11.498;2023-11-19T12:13:55;0.55;;;0.52;;
8353;SDS011;4656;48.090;11.498;2023-11-19T12:16:10;0.35;;;0.30;;
8353;SDS011;4656;48.090;11.498;2023-11-19T12:18:12;1.00;;;0.90;;
8353;SDS011;4656;48.090;11.498;2023-11-19T12:20:21;0.70;;;0.70;;
8353;SDS011;4656;48.090;11.498;2023-11-19T12:22:24;0.67;;;0.67;;
8353;SDS011;4656;48.090;11.498;2023-11-19T12:24:26;2.22;;;1.23;;
8353;SDS011;4656;48.090;11.498;2023-11-19T12:26:35;1.20;;;0.65;;
8353;SDS011;4656;48.090;11.498;2023-11-19T12:28:37;0.93;;;0.60;;
8353;SDS011;4656;48.090;11.498;2023-11-19T12:30:39;0.63;;;0.63;;
8353;SDS011;4656;48.090;11.498;2023-11-19T12:32:45;1.05;;;0.68;;
8353;SDS011;4656;48.090;11.498;2023-11-19T12:34:48;0.68;;;0.68;;